sensor_id;sensor_type;location;lat;lon;timestamp;temperature;humidity
22418;DHT22;11376;50.932;4.442;2023-02-23T00:01:40;8.90;99.90
22418;DHT22;11376;50.932;4.442;2023-02-23T00:04:06;8.90;99.90
22418;DHT22;11376;50.932;4.442;2023-02-23T00:06:33;8.90;99.90
22418;DHT22;11376;50.932;4.442;2023-02-23T00:09:00;8.90;99.90
22418;DHT22;11376;50.932;4.442;2023-02-23T00:11:27;8.90;99.90
22418;DHT22;11376;50.932;4.442;2023-02-23T00:13:53;8.90;99.90
22418;DHT22;11376;50.932;4.442;2023-02-23T00:16:23;8.90;99.90
22418;DHT22;11376;50.932;4.442;2023-02-23T00:18:54;8.90;99.90
22418;DHT22;11376;50.932;4.442;2023-02-23T00:21:22;8.90;99.90
22418;DHT22;11376;50.932;4.442;2023-02-23T00:23:51;8.90;99.90
22418;DHT22;11376;50.932;4.442;2023-02-23T00:26:18;8.90;99.90
22418;DHT22;11376;50.932;4.442;2023-02-23T00:28:46;8.80;99.90
22418;DHT22;11376;50.932;4.442;2023-02-23T00:31:12;8.80;99.90
22418;DHT22;11376;50.932;4.442;2023-02-23T00:33:39;8.80;99.90
22418;DHT22;11376;50.932;4.442;2023-02-23T00:36:08;8.90;99.90
22418;DHT22;11376;50.932;4.442;2023-02-23T00:38:35;8.90;99.90
22418;DHT22;11376;50.932;4.442;2023-02-23T00:41:10;8.90;99.90
22418;DHT22;11376;50.932;4.442;2023-02-23T00:43:38;8.90;99.90
22418;DHT22;11376;50.932;4.442;2023-02-23T00:46:04;8.90;99.90
22418;DHT22;11376;50.932;4.442;2023-02-23T00:48:34;8.90;99.90
22418;DHT22;11376;50.932;4.442;2023-02-23T00:51:01;8.90;99.90
22418;DHT22;11376;50.932;4.442;2023-02-23T00:53:28;9.00;99.90
22418;DHT22;11376;50.932;4.442;2023-02-23T00:55:54;9.00;99.90
22418;DHT22;11376;50.932;4.442;2023-02-23T00:58:21;9.10;99.90
22418;DHT22;11376;50.932;4.442;2023-02-23T01:00:46;9.00;99.90
22418;DHT22;11376;50.932;4.442;2023-02-23T01:03:12;9.00;99.90
22418;DHT22;11376;50.932;4.442;2023-02-23T01:05:38;9.00;99.90
22418;DHT22;11376;50.932;4.442;2023-02-23T01:08:03;9.00;99.90
22418;DHT22;11376;50.932;4.442;2023-02-23T01:10:37;9.00;99.90
22418;DHT22;11376;50.932;4.442;2023-02-23T01:13:03;9.00;99.90
22418;DHT22;11376;50.932;4.442;2023-02-23T01:15:30;9.00;99.90
22418;DHT22;11376;50.932;4.442;2023-02-23T01:17:57;9.00;99.90
22418;DHT22;11376;50.932;4.442;2023-02-23T01:20:23;9.00;99.90
22418;DHT22;11376;50.932;4.442;2023-02-23T01:22:49;9.00;99.90
22418;DHT22;11376;50.932;4.442;2023-02-23T01:25:18;9.00;99.90
22418;DHT22;11376;50.932;4.442;2023-02-23T01:27:44;9.00;99.90
22418;DHT22;11376;50.932;4.442;2023-02-23T01:30:12;9.00;99.90
22418;DHT22;11376;50.932;4.442;2023-02-23T01:32:39;9.00;99.90
22418;DHT22;11376;50.932;4.442;2023-02-23T01:35:08;8.90;99.90
22418;DHT22;11376;50.932;4.442;2023-02-23T01:37:34;8.90;99.90
22418;DHT22;11376;50.932;4.442;2023-02-23T01:40:01;8.90;99.90
22418;DHT22;11376;50.932;4.442;2023-02-23T01:42:39;8.90;99.90
22418;DHT22;11376;50.932;4.442;2023-02-23T01:45:21;8.90;99.90
22418;DHT22;11376;50.932;4.442;2023-02-23T01:47:49;9.00;99.90
22418;DHT22;11376;50.932;4.442;2023-02-23T01:50:16;9.00;99.90
22418;DHT22;11376;50.932;4.442;2023-02-23T01:52:43;9.10;99.90
22418;DHT22;11376;50.932;4.442;2023-02-23T01:55:10;9.10;99.90
22418;DHT22;11376;50.932;4.442;2023-02-23T01:57:38;9.10;99.90
22418;DHT22;11376;50.932;4.442;2023-02-23T02:00:06;9.10;99.90
22418;DHT22;11376;50.932;4.442;2023-02-23T02:02:37;9.20;99.90
22418;DHT22;11376;50.932;4.442;2023-02-23T02:05:04;9.20;99.90
22418;DHT22;11376;50.932;4.442;2023-02-23T02:07:36;9.10;99.90
22418;DHT22;11376;50.932;4.442;2023-02-23T02:10:04;9.20;99.90
22418;DHT22;11376;50.932;4.442;2023-02-23T02:12:42;9.10;99.90
22418;DHT22;11376;50.932;4.442;2023-02-23T02:15:09;9.20;99.90
22418;DHT22;11376;50.932;4.442;2023-02-23T02:21:09;9.00;99.90
22418;DHT22;11376;50.932;4.442;2023-02-23T02:42:56;8.90;99.90
22418;DHT22;11376;50.932;4.442;2023-02-23T02:45:33;8.90;99.90
22418;DHT22;11376;50.932;4.442;2023-02-23T02:51:00;8.90;99.90
22418;DHT22;11376;50.932;4.442;2023-02-23T02:54:00;8.90;99.90
22418;DHT22;11376;50.932;4.442;2023-02-23T02:56:35;9.00;99.90
22418;DHT22;11376;50.932;4.442;2023-02-23T02:59:07;9.10;99.90
22418;DHT22;11376;50.932;4.442;2023-02-23T03:01:54;9.10;99.90
22418;DHT22;11376;50.932;4.442;2023-02-23T03:04:39;9.20;99.90
22418;DHT22;11376;50.932;4.442;2023-02-23T03:07:33;9.30;99.90
22418;DHT22;11376;50.932;4.442;2023-02-23T03:10:28;9.40;99.90
22418;DHT22;11376;50.932;4.442;2023-02-23T03:19:30;9.60;99.90
22418;DHT22;11376;50.932;4.442;2023-02-23T03:22:33;9.70;99.90
22418;DHT22;11376;50.932;4.442;2023-02-23T03:25:28;9.70;99.90
22418;DHT22;11376;50.932;4.442;2023-02-23T03:28:23;9.80;99.90
22418;DHT22;11376;50.932;4.442;2023-02-23T03:31:36;9.70;99.90
22418;DHT22;11376;50.932;4.442;2023-02-23T03:34:32;9.70;99.90
22418;DHT22;11376;50.932;4.442;2023-02-23T03:37:40;9.80;99.90
22418;DHT22;11376;50.932;4.442;2023-02-23T03:40:39;9.80;99.90
22418;DHT22;11376;50.932;4.442;2023-02-23T03:43:29;9.90;99.90
22418;DHT22;11376;50.932;4.442;2023-02-23T03:46:18;9.80;99.90
22418;DHT22;11376;50.932;4.442;2023-02-23T03:49:06;9.80;99.90
22418;DHT22;11376;50.932;4.442;2023-02-23T03:51:56;9.80;99.90
22418;DHT22;11376;50.932;4.442;2023-02-23T03:54:53;9.70;99.90
22418;DHT22;11376;50.932;4.442;2023-02-23T03:57:40;9.50;99.90
22418;DHT22;11376;50.932;4.442;2023-02-23T04:00:29;9.50;99.90
22418;DHT22;11376;50.932;4.442;2023-02-23T04:03:17;9.50;99.90
22418;DHT22;11376;50.932;4.442;2023-02-23T04:06:05;9.50;99.90
22418;DHT22;11376;50.932;4.442;2023-02-23T04:08:51;9.60;99.90
22418;DHT22;11376;50.932;4.442;2023-02-23T04:11:55;9.60;99.90
22418;DHT22;11376;50.932;4.442;2023-02-23T04:14:47;9.70;99.90
22418;DHT22;11376;50.932;4.442;2023-02-23T04:17:16;9.70;99.90
22418;DHT22;11376;50.932;4.442;2023-02-23T04:19:52;9.60;99.90
22418;DHT22;11376;50.932;4.442;2023-02-23T04:22:19;9.80;99.90
22418;DHT22;11376;50.932;4.442;2023-02-23T04:24:44;9.90;99.90
22418;DHT22;11376;50.932;4.442;2023-02-23T04:27:11;9.80;99.90
22418;DHT22;11376;50.932;4.442;2023-02-23T04:29:37;9.80;99.90
22418;DHT22;11376;50.932;4.442;2023-02-23T04:32:03;9.90;99.90
22418;DHT22;11376;50.932;4.442;2023-02-23T04:34:29;9.80;99.90
22418;DHT22;11376;50.932;4.442;2023-02-23T04:36:54;9.80;99.90
22418;DHT22;11376;50.932;4.442;2023-02-23T04:39:20;9.80;99.90
22418;DHT22;11376;50.932;4.442;2023-02-23T04:41:45;9.80;99.90
22418;DHT22;11376;50.932;4.442;2023-02-23T04:44:13;9.90;99.90
22418;DHT22;11376;50.932;4.442;2023-02-23T04:46:38;9.90;99.90
22418;DHT22;11376;50.932;4.442;2023-02-23T04:49:06;9.90;99.90
22418;DHT22;11376;50.932;4.442;2023-02-23T04:51:32;9.90;99.90
22418;DHT22;11376;50.932;4.442;2023-02-23T04:53:58;9.80;99.90
22418;DHT22;11376;50.932;4.442;2023-02-23T04:56:24;9.80;99.90
22418;DHT22;11376;50.932;4.442;2023-02-23T04:58:50;9.90;99.90
22418;DHT22;11376;50.932;4.442;2023-02-23T05:01:16;9.90;99.90
22418;DHT22;11376;50.932;4.442;2023-02-23T05:03:42;9.90;99.90
22418;DHT22;11376;50.932;4.442;2023-02-23T05:06:08;9.80;99.90
22418;DHT22;11376;50.932;4.442;2023-02-23T05:08:33;9.90;99.90
22418;DHT22;11376;50.932;4.442;2023-02-23T05:10:59;9.90;99.90
22418;DHT22;11376;50.932;4.442;2023-02-23T05:13:24;9.80;99.90
22418;DHT22;11376;50.932;4.442;2023-02-23T05:15:55;9.90;99.90
22418;DHT22;11376;50.932;4.442;2023-02-23T05:18:21;10.00;99.90
22418;DHT22;11376;50.932;4.442;2023-02-23T05:20:47;10.00;99.90
22418;DHT22;11376;50.932;4.442;2023-02-23T05:23:13;10.00;99.90
22418;DHT22;11376;50.932;4.442;2023-02-23T05:25:39;9.80;99.90
22418;DHT22;11376;50.932;4.442;2023-02-23T05:28:04;9.90;99.90
22418;DHT22;11376;50.932;4.442;2023-02-23T05:30:30;9.80;99.90
22418;DHT22;11376;50.932;4.442;2023-02-23T05:32:56;9.80;99.90
22418;DHT22;11376;50.932;4.442;2023-02-23T05:35:22;9.70;99.90
22418;DHT22;11376;50.932;4.442;2023-02-23T05:37:47;9.70;99.90
22418;DHT22;11376;50.932;4.442;2023-02-23T05:40:13;9.70;99.90
22418;DHT22;11376;50.932;4.442;2023-02-23T05:42:39;9.90;99.90
22418;DHT22;11376;50.932;4.442;2023-02-23T05:45:05;9.80;99.90
22418;DHT22;11376;50.932;4.442;2023-02-23T05:47:32;9.80;99.90
22418;DHT22;11376;50.932;4.442;2023-02-23T05:49:59;9.90;99.90
22418;DHT22;11376;50.932;4.442;2023-02-23T05:52:26;9.90;99.90
22418;DHT22;11376;50.932;4.442;2023-02-23T05:54:51;9.90;99.90
22418;DHT22;11376;50.932;4.442;2023-02-23T05:57:17;9.90;99.90
22418;DHT22;11376;50.932;4.442;2023-02-23T05:59:42;9.90;99.90
22418;DHT22;11376;50.932;4.442;2023-02-23T06:02:08;9.80;99.90
22418;DHT22;11376;50.932;4.442;2023-02-23T06:04:33;9.80;99.90
22418;DHT22;11376;50.932;4.442;2023-02-23T06:06:59;9.80;99.90
22418;DHT22;11376;50.932;4.442;2023-02-23T06:09:25;9.80;99.90
22418;DHT22;11376;50.932;4.442;2023-02-23T06:11:50;9.80;99.90
22418;DHT22;11376;50.932;4.442;2023-02-23T06:14:16;10.00;99.90
22418;DHT22;11376;50.932;4.442;2023-02-23T06:16:41;9.90;99.90
22418;DHT22;11376;50.932;4.442;2023-02-23T06:19:10;9.80;99.90
22418;DHT22;11376;50.932;4.442;2023-02-23T06:21:35;9.80;99.90
22418;DHT22;11376;50.932;4.442;2023-02-23T06:24:01;9.70;99.90
22418;DHT22;11376;50.932;4.442;2023-02-23T06:26:27;9.70;99.90
22418;DHT22;11376;50.932;4.442;2023-02-23T06:28:53;9.60;99.90
22418;DHT22;11376;50.932;4.442;2023-02-23T06:31:18;9.60;99.90
22418;DHT22;11376;50.932;4.442;2023-02-23T06:33:44;9.60;99.90
22418;DHT22;11376;50.932;4.442;2023-02-23T06:36:10;9.60;99.90
22418;DHT22;11376;50.932;4.442;2023-02-23T06:38:35;9.60;99.90
22418;DHT22;11376;50.932;4.442;2023-02-23T06:41:07;9.60;99.90
22418;DHT22;11376;50.932;4.442;2023-02-23T06:43:33;9.60;99.90
22418;DHT22;11376;50.932;4.442;2023-02-23T06:46:02;9.70;99.90
22418;DHT22;11376;50.932;4.442;2023-02-23T06:48:28;9.70;99.90
22418;DHT22;11376;50.932;4.442;2023-02-23T06:50:56;9.70;99.90
22418;DHT22;11376;50.932;4.442;2023-02-23T06:53:21;9.70;99.90
22418;DHT22;11376;50.932;4.442;2023-02-23T06:55:48;9.80;99.90
22418;DHT22;11376;50.932;4.442;2023-02-23T06:58:13;9.80;99.90
22418;DHT22;11376;50.932;4.442;2023-02-23T07:00:39;9.80;99.90
22418;DHT22;11376;50.932;4.442;2023-02-23T07:03:07;9.80;99.90
22418;DHT22;11376;50.932;4.442;2023-02-23T07:05:32;9.80;99.90
22418;DHT22;11376;50.932;4.442;2023-02-23T07:07:58;9.90;99.90
22418;DHT22;11376;50.932;4.442;2023-02-23T07:10:23;9.90;99.90
22418;DHT22;11376;50.932;4.442;2023-02-23T07:12:49;10.10;99.90
22418;DHT22;11376;50.932;4.442;2023-02-23T07:15:15;10.00;99.90
22418;DHT22;11376;50.932;4.442;2023-02-23T07:17:42;9.90;99.90
22418;DHT22;11376;50.932;4.442;2023-02-23T07:20:09;9.80;99.90
22418;DHT22;11376;50.932;4.442;2023-02-23T07:22:35;9.70;99.90
22418;DHT22;11376;50.932;4.442;2023-02-23T07:25:00;9.40;99.90
22418;DHT22;11376;50.932;4.442;2023-02-23T07:27:26;9.20;99.90
22418;DHT22;11376;50.932;4.442;2023-02-23T07:29:52;9.40;99.90
22418;DHT22;11376;50.932;4.442;2023-02-23T07:35:32;9.50;99.90
22418;DHT22;11376;50.932;4.442;2023-02-23T07:37:57;9.80;99.90
22418;DHT22;11376;50.932;4.442;2023-02-23T07:40:23;9.90;99.90
22418;DHT22;11376;50.932;4.442;2023-02-23T07:42:50;9.90;99.90
22418;DHT22;11376;50.932;4.442;2023-02-23T07:45:15;9.50;99.90
22418;DHT22;11376;50.932;4.442;2023-02-23T07:47:42;9.10;99.90
22418;DHT22;11376;50.932;4.442;2023-02-23T07:50:08;8.90;99.90
22418;DHT22;11376;50.932;4.442;2023-02-23T07:52:36;8.90;99.90
22418;DHT22;11376;50.932;4.442;2023-02-23T07:55:02;8.80;99.90
22418;DHT22;11376;50.932;4.442;2023-02-23T07:57:28;8.70;99.90
22418;DHT22;11376;50.932;4.442;2023-02-23T07:59:53;8.60;99.90
22418;DHT22;11376;50.932;4.442;2023-02-23T08:02:19;8.70;99.90
22418;DHT22;11376;50.932;4.442;2023-02-23T08:04:45;8.70;99.90
22418;DHT22;11376;50.932;4.442;2023-02-23T08:07:10;8.80;99.90
22418;DHT22;11376;50.932;4.442;2023-02-23T08:09:36;8.70;99.90
22418;DHT22;11376;50.932;4.442;2023-02-23T08:12:02;8.70;99.90
22418;DHT22;11376;50.932;4.442;2023-02-23T08:14:28;8.70;99.90
22418;DHT22;11376;50.932;4.442;2023-02-23T08:16:53;8.80;99.90
22418;DHT22;11376;50.932;4.442;2023-02-23T08:19:19;8.90;99.90
22418;DHT22;11376;50.932;4.442;2023-02-23T08:21:48;9.00;99.90
22418;DHT22;11376;50.932;4.442;2023-02-23T08:24:15;9.10;99.90
22418;DHT22;11376;50.932;4.442;2023-02-23T08:26:41;9.10;99.90
22418;DHT22;11376;50.932;4.442;2023-02-23T08:29:06;9.10;99.90
22418;DHT22;11376;50.932;4.442;2023-02-23T08:31:32;9.00;99.90
22418;DHT22;11376;50.932;4.442;2023-02-23T08:33:58;9.00;99.90
22418;DHT22;11376;50.932;4.442;2023-02-23T08:36:23;9.10;99.90
22418;DHT22;11376;50.932;4.442;2023-02-23T08:38:49;9.30;99.90
22418;DHT22;11376;50.932;4.442;2023-02-23T08:41:15;9.30;99.90
22418;DHT22;11376;50.932;4.442;2023-02-23T08:43:42;9.50;99.90
22418;DHT22;11376;50.932;4.442;2023-02-23T08:46:07;9.60;99.90
22418;DHT22;11376;50.932;4.442;2023-02-23T08:48:34;9.70;99.90
22418;DHT22;11376;50.932;4.442;2023-02-23T08:51:00;9.50;99.90
22418;DHT22;11376;50.932;4.442;2023-02-23T08:53:26;9.50;99.90
22418;DHT22;11376;50.932;4.442;2023-02-23T08:56:02;9.40;99.90
22418;DHT22;11376;50.932;4.442;2023-02-23T08:58:29;9.40;99.90
22418;DHT22;11376;50.932;4.442;2023-02-23T09:00:55;9.30;99.90
22418;DHT22;11376;50.932;4.442;2023-02-23T09:03:23;9.40;99.90
22418;DHT22;11376;50.932;4.442;2023-02-23T09:05:51;9.50;99.90
22418;DHT22;11376;50.932;4.442;2023-02-23T09:08:17;9.70;99.90
22418;DHT22;11376;50.932;4.442;2023-02-23T09:10:43;9.90;99.90
22418;DHT22;11376;50.932;4.442;2023-02-23T09:13:10;10.10;99.90
22418;DHT22;11376;50.932;4.442;2023-02-23T09:15:37;10.30;99.90
22418;DHT22;11376;50.932;4.442;2023-02-23T09:18:04;10.60;99.90
22418;DHT22;11376;50.932;4.442;2023-02-23T09:20:29;10.60;99.90
22418;DHT22;11376;50.932;4.442;2023-02-23T09:22:55;10.70;99.90
22418;DHT22;11376;50.932;4.442;2023-02-23T09:25:21;10.80;99.90
22418;DHT22;11376;50.932;4.442;2023-02-23T09:27:49;10.90;99.90
22418;DHT22;11376;50.932;4.442;2023-02-23T09:30:15;11.10;99.90
22418;DHT22;11376;50.932;4.442;2023-02-23T09:32:46;11.20;99.90
22418;DHT22;11376;50.932;4.442;2023-02-23T09:35:13;11.30;99.90
22418;DHT22;11376;50.932;4.442;2023-02-23T09:37:50;11.20;99.90
22418;DHT22;11376;50.932;4.442;2023-02-23T09:40:19;11.30;99.90
22418;DHT22;11376;50.932;4.442;2023-02-23T09:43:05;11.30;99.90
22418;DHT22;11376;50.932;4.442;2023-02-23T09:48:27;11.20;99.90
22418;DHT22;11376;50.932;4.442;2023-02-23T09:50:55;11.20;99.90
22418;DHT22;11376;50.932;4.442;2023-02-23T09:56:11;11.30;99.90
22418;DHT22;11376;50.932;4.442;2023-02-23T09:58:38;11.30;99.90
22418;DHT22;11376;50.932;4.442;2023-02-23T10:06:41;11.50;99.90
22418;DHT22;11376;50.932;4.442;2023-02-23T10:17:59;12.30;99.90
22418;DHT22;11376;50.932;4.442;2023-02-23T10:21:10;12.50;99.90
22418;DHT22;11376;50.932;4.442;2023-02-23T10:26:19;12.80;99.90
22418;DHT22;11376;50.932;4.442;2023-02-23T10:28:46;12.70;99.90
22418;DHT22;11376;50.932;4.442;2023-02-23T10:31:37;12.80;99.90
22418;DHT22;11376;50.932;4.442;2023-02-23T10:34:12;13.10;99.90
22418;DHT22;11376;50.932;4.442;2023-02-23T10:36:44;13.20;99.90
22418;DHT22;11376;50.932;4.442;2023-02-23T10:39:11;13.40;99.90
22418;DHT22;11376;50.932;4.442;2023-02-23T10:41:37;13.60;99.90
22418;DHT22;11376;50.932;4.442;2023-02-23T10:44:04;13.70;99.90
22418;DHT22;11376;50.932;4.442;2023-02-23T10:46:39;13.70;99.90
22418;DHT22;11376;50.932;4.442;2023-02-23T10:49:06;13.60;99.90
22418;DHT22;11376;50.932;4.442;2023-02-23T10:51:36;13.70;99.90
22418;DHT22;11376;50.932;4.442;2023-02-23T10:54:54;13.80;99.90
22418;DHT22;11376;50.932;4.442;2023-02-23T10:57:26;13.90;99.90
22418;DHT22;11376;50.932;4.442;2023-02-23T11:02:42;13.70;99.90
22418;DHT22;11376;50.932;4.442;2023-02-23T11:05:46;13.80;99.90
22418;DHT22;11376;50.932;4.442;2023-02-23T11:08:25;13.70;99.90
22418;DHT22;11376;50.932;4.442;2023-02-23T11:13:38;13.40;99.90
22418;DHT22;11376;50.932;4.442;2023-02-23T11:18:30;12.80;99.90
22418;DHT22;11376;50.932;4.442;2023-02-23T11:20:56;12.60;99.90
22418;DHT22;11376;50.932;4.442;2023-02-23T11:23:23;12.30;99.90
22418;DHT22;11376;50.932;4.442;2023-02-23T11:25:55;12.30;99.90
22418;DHT22;11376;50.932;4.442;2023-02-23T11:28:30;12.10;99.90
22418;DHT22;11376;50.932;4.442;2023-02-23T11:31:01;12.10;99.90
22418;DHT22;11376;50.932;4.442;2023-02-23T11:33:32;12.10;99.90
22418;DHT22;11376;50.932;4.442;2023-02-23T11:36:17;12.00;99.90
22418;DHT22;11376;50.932;4.442;2023-02-23T11:38:45;11.90;99.90
22418;DHT22;11376;50.932;4.442;2023-02-23T11:41:21;11.70;99.90
22418;DHT22;11376;50.932;4.442;2023-02-23T11:43:55;11.60;99.90
22418;DHT22;11376;50.932;4.442;2023-02-23T11:46:21;11.60;99.90
22418;DHT22;11376;50.932;4.442;2023-02-23T11:49:05;11.70;99.90
22418;DHT22;11376;50.932;4.442;2023-02-23T11:51:37;11.80;99.90
22418;DHT22;11376;50.932;4.442;2023-02-23T11:54:06;11.90;99.90
22418;DHT22;11376;50.932;4.442;2023-02-23T11:56:40;12.00;99.90
22418;DHT22;11376;50.932;4.442;2023-02-23T11:59:17;12.10;99.90
22418;DHT22;11376;50.932;4.442;2023-02-23T12:01:46;12.20;99.90
22418;DHT22;11376;50.932;4.442;2023-02-23T12:04:31;12.30;99.90
22418;DHT22;11376;50.932;4.442;2023-02-23T12:07:22;12.40;99.90
22418;DHT22;11376;50.932;4.442;2023-02-23T12:09:58;12.50;99.90
22418;DHT22;11376;50.932;4.442;2023-02-23T12:12:27;12.40;99.90
22418;DHT22;11376;50.932;4.442;2023-02-23T12:15:05;12.20;99.90
22418;DHT22;11376;50.932;4.442;2023-02-23T12:17:39;12.20;99.90
22418;DHT22;11376;50.932;4.442;2023-02-23T12:20:33;12.00;99.90
22418;DHT22;11376;50.932;4.442;2023-02-23T12:23:07;12.10;99.90
22418;DHT22;11376;50.932;4.442;2023-02-23T12:25:39;12.20;99.90
22418;DHT22;11376;50.932;4.442;2023-02-23T12:28:41;12.50;99.90
22418;DHT22;11376;50.932;4.442;2023-02-23T12:31:27;12.60;99.90
22418;DHT22;11376;50.932;4.442;2023-02-23T12:33:58;12.80;99.90
22418;DHT22;11376;50.932;4.442;2023-02-23T12:39:27;13.30;99.90
22418;DHT22;11376;50.932;4.442;2023-02-23T12:42:21;13.20;99.90
22418;DHT22;11376;50.932;4.442;2023-02-23T12:50:49;12.80;99.90
22418;DHT22;11376;50.932;4.442;2023-02-23T12:53:25;12.80;99.90
22418;DHT22;11376;50.932;4.442;2023-02-23T13:01:26;13.20;99.90
22418;DHT22;11376;50.932;4.442;2023-02-23T13:03:58;13.30;99.90
22418;DHT22;11376;50.932;4.442;2023-02-23T13:06:38;13.30;99.90
22418;DHT22;11376;50.932;4.442;2023-02-23T13:09:29;13.00;99.90
22418;DHT22;11376;50.932;4.442;2023-02-23T13:15:22;12.70;99.90
22418;DHT22;11376;50.932;4.442;2023-02-23T13:18:31;12.40;99.90
22418;DHT22;11376;50.932;4.442;2023-02-23T13:24:06;12.20;99.90
22418;DHT22;11376;50.932;4.442;2023-02-23T13:31:57;12.20;99.90
22418;DHT22;11376;50.932;4.442;2023-02-23T13:34:33;12.20;99.90
22418;DHT22;11376;50.932;4.442;2023-02-23T13:37:03;12.20;99.90
22418;DHT22;11376;50.932;4.442;2023-02-23T13:49:55;12.10;99.90
22418;DHT22;11376;50.932;4.442;2023-02-23T13:53:00;12.10;99.90
22418;DHT22;11376;50.932;4.442;2023-02-23T13:55:46;12.10;99.90
22418;DHT22;11376;50.932;4.442;2023-02-23T13:58:26;12.00;99.90
22418;DHT22;11376;50.932;4.442;2023-02-23T14:01:03;12.00;99.90
22418;DHT22;11376;50.932;4.442;2023-02-23T14:03:43;11.90;99.90
22418;DHT22;11376;50.932;4.442;2023-02-23T14:06:13;11.90;99.90
22418;DHT22;11376;50.932;4.442;2023-02-23T14:08:42;11.80;99.90
22418;DHT22;11376;50.932;4.442;2023-02-23T14:11:09;11.80;99.90
22418;DHT22;11376;50.932;4.442;2023-02-23T14:13:59;11.80;99.90
22418;DHT22;11376;50.932;4.442;2023-02-23T14:16:26;11.80;99.90
22418;DHT22;11376;50.932;4.442;2023-02-23T14:22:04;11.80;99.90
22418;DHT22;11376;50.932;4.442;2023-02-23T14:24:30;11.80;99.90
22418;DHT22;11376;50.932;4.442;2023-02-23T14:29:29;11.80;99.90
22418;DHT22;11376;50.932;4.442;2023-02-23T14:39:54;12.20;99.90
22418;DHT22;11376;50.932;4.442;2023-02-23T14:42:26;12.40;99.90
22418;DHT22;11376;50.932;4.442;2023-02-23T14:44:55;12.70;99.90
22418;DHT22;11376;50.932;4.442;2023-02-23T14:47:25;13.10;99.90
22418;DHT22;11376;50.932;4.442;2023-02-23T14:50:00;13.90;99.90
22418;DHT22;11376;50.932;4.442;2023-02-23T14:52:34;14.80;99.90
22418;DHT22;11376;50.932;4.442;2023-02-23T14:55:20;15.60;99.90
22418;DHT22;11376;50.932;4.442;2023-02-23T14:57:46;16.70;99.90
22418;DHT22;11376;50.932;4.442;2023-02-23T15:00:32;17.50;99.90
22418;DHT22;11376;50.932;4.442;2023-02-23T15:03:06;17.40;99.90
22418;DHT22;11376;50.932;4.442;2023-02-23T15:05:51;17.70;99.90
22418;DHT22;11376;50.932;4.442;2023-02-23T15:08:24;18.30;99.90
22418;DHT22;11376;50.932;4.442;2023-02-23T15:11:01;18.20;99.90
22418;DHT22;11376;50.932;4.442;2023-02-23T15:13:39;18.00;99.90
22418;DHT22;11376;50.932;4.442;2023-02-23T15:16:20;17.50;99.90
22418;DHT22;11376;50.932;4.442;2023-02-23T15:18:47;16.60;99.90
22418;DHT22;11376;50.932;4.442;2023-02-23T15:21:18;16.00;99.90
22418;DHT22;11376;50.932;4.442;2023-02-23T15:23:47;15.50;99.90
22418;DHT22;11376;50.932;4.442;2023-02-23T15:26:28;15.30;99.90
22418;DHT22;11376;50.932;4.442;2023-02-23T15:29:17;15.00;99.90
22418;DHT22;11376;50.932;4.442;2023-02-23T15:31:53;14.70;99.90
22418;DHT22;11376;50.932;4.442;2023-02-23T15:34:26;14.50;99.90
22418;DHT22;11376;50.932;4.442;2023-02-23T15:37:01;14.30;99.90
22418;DHT22;11376;50.932;4.442;2023-02-23T15:39:36;14.00;99.90
22418;DHT22;11376;50.932;4.442;2023-02-23T15:42:03;13.90;99.90
22418;DHT22;11376;50.932;4.442;2023-02-23T15:44:30;13.70;99.90
22418;DHT22;11376;50.932;4.442;2023-02-23T15:47:04;13.50;99.90
22418;DHT22;11376;50.932;4.442;2023-02-23T15:49:32;13.60;99.90
22418;DHT22;11376;50.932;4.442;2023-02-23T15:52:06;13.30;99.90
22418;DHT22;11376;50.932;4.442;2023-02-23T15:57:03;12.90;99.90
22418;DHT22;11376;50.932;4.442;2023-02-23T15:59:35;12.70;99.90
22418;DHT22;11376;50.932;4.442;2023-02-23T16:02:03;12.60;99.90
22418;DHT22;11376;50.932;4.442;2023-02-23T16:04:38;12.50;99.90
22418;DHT22;11376;50.932;4.442;2023-02-23T16:07:24;12.60;99.90
22418;DHT22;11376;50.932;4.442;2023-02-23T16:10:26;12.40;99.90
22418;DHT22;11376;50.932;4.442;2023-02-23T16:12:53;12.40;99.90
22418;DHT22;11376;50.932;4.442;2023-02-23T16:17:55;12.30;99.90
22418;DHT22;11376;50.932;4.442;2023-02-23T16:23:03;12.30;99.90
22418;DHT22;11376;50.932;4.442;2023-02-23T16:25:30;12.10;99.90
22418;DHT22;11376;50.932;4.442;2023-02-23T16:28:02;12.10;99.90
22418;DHT22;11376;50.932;4.442;2023-02-23T16:31:12;12.00;99.90
22418;DHT22;11376;50.932;4.442;2023-02-23T16:33:41;11.90;99.90
22418;DHT22;11376;50.932;4.442;2023-02-23T16:36:14;11.90;99.90
22418;DHT22;11376;50.932;4.442;2023-02-23T16:41:20;12.00;99.90
22418;DHT22;11376;50.932;4.442;2023-02-23T16:43:48;11.90;99.90
22418;DHT22;11376;50.932;4.442;2023-02-23T16:46:15;11.90;99.90
22418;DHT22;11376;50.932;4.442;2023-02-23T16:48:41;11.70;99.90
22418;DHT22;11376;50.932;4.442;2023-02-23T16:51:14;11.80;99.90
22418;DHT22;11376;50.932;4.442;2023-02-23T16:53:41;11.70;99.90
22418;DHT22;11376;50.932;4.442;2023-02-23T16:56:10;11.50;99.90
22418;DHT22;11376;50.932;4.442;2023-02-23T16:58:39;11.40;99.90
22418;DHT22;11376;50.932;4.442;2023-02-23T17:01:05;11.30;99.90
22418;DHT22;11376;50.932;4.442;2023-02-23T17:03:31;11.20;99.90
22418;DHT22;11376;50.932;4.442;2023-02-23T17:05:57;11.10;99.90
22418;DHT22;11376;50.932;4.442;2023-02-23T17:08:23;11.20;99.90
22418;DHT22;11376;50.932;4.442;2023-02-23T17:10:51;11.30;99.90
22418;DHT22;11376;50.932;4.442;2023-02-23T17:13:24;11.10;99.90
22418;DHT22;11376;50.932;4.442;2023-02-23T17:15:51;11.00;99.90
22418;DHT22;11376;50.932;4.442;2023-02-23T17:18:27;10.90;99.90
22418;DHT22;11376;50.932;4.442;2023-02-23T17:20:54;10.90;99.90
22418;DHT22;11376;50.932;4.442;2023-02-23T17:23:23;10.80;99.90
22418;DHT22;11376;50.932;4.442;2023-02-23T17:25:51;10.80;99.90
22418;DHT22;11376;50.932;4.442;2023-02-23T17:28:17;10.60;99.90
22418;DHT22;11376;50.932;4.442;2023-02-23T17:30:43;10.60;99.90
22418;DHT22;11376;50.932;4.442;2023-02-23T17:33:10;10.50;99.90
22418;DHT22;11376;50.932;4.442;2023-02-23T17:35:35;10.70;99.90
22418;DHT22;11376;50.932;4.442;2023-02-23T17:38:06;10.80;99.90
22418;DHT22;11376;50.932;4.442;2023-02-23T17:40:32;10.70;99.90
22418;DHT22;11376;50.932;4.442;2023-02-23T17:43:03;10.70;99.90
22418;DHT22;11376;50.932;4.442;2023-02-23T17:45:30;10.70;99.90
22418;DHT22;11376;50.932;4.442;2023-02-23T17:47:56;10.70;99.90
22418;DHT22;11376;50.932;4.442;2023-02-23T17:50:23;10.80;99.90
22418;DHT22;11376;50.932;4.442;2023-02-23T17:52:51;10.80;99.90
22418;DHT22;11376;50.932;4.442;2023-02-23T17:55:18;10.80;99.90
22418;DHT22;11376;50.932;4.442;2023-02-23T17:57:45;10.90;99.90
22418;DHT22;11376;50.932;4.442;2023-02-23T18:00:14;10.90;99.90
22418;DHT22;11376;50.932;4.442;2023-02-23T18:02:42;10.90;99.90
22418;DHT22;11376;50.932;4.442;2023-02-23T18:05:09;11.00;99.90
22418;DHT22;11376;50.932;4.442;2023-02-23T18:07:36;11.10;99.90
22418;DHT22;11376;50.932;4.442;2023-02-23T18:10:03;11.10;99.90
22418;DHT22;11376;50.932;4.442;2023-02-23T18:12:29;11.10;99.90
22418;DHT22;11376;50.932;4.442;2023-02-23T18:14:55;11.10;99.90